createdAt,value
2023-04-25T00:01:01.603Z,2.90
2023-04-25T00:04:30.826Z,2.90
2023-04-25T00:07:59.215Z,3.30
2023-04-25T00:11:26.518Z,3.20
2023-04-25T00:14:53.927Z,3.60
2023-04-25T00:18:21.064Z,3.50
2023-04-25T00:21:47.956Z,3.40
2023-04-25T00:25:14.707Z,3.50
2023-04-25T00:28:41.899Z,3.60
2023-04-25T00:32:09.076Z,3.80
2023-04-25T00:35:36.387Z,3.90
2023-04-25T00:39:04.171Z,4.10
2023-04-25T00:42:33.132Z,3.30
2023-04-25T00:46:02.051Z,3.60
2023-04-25T00:49:28.947Z,3.20
2023-04-25T00:52:56.306Z,3.10
2023-04-25T00:56:23.278Z,3.30
2023-04-25T00:59:50.276Z,2.80
2023-04-25T01:03:18.345Z,2.90
2023-04-25T01:06:46.074Z,3.00
2023-04-25T01:10:13.353Z,2.90
2023-04-25T01:13:40.140Z,2.70
2023-04-25T01:17:08.799Z,2.80
2023-04-25T01:20:36.403Z,3.40
2023-04-25T01:24:03.775Z,3.00
2023-04-25T01:27:31.568Z,3.20
2023-04-25T01:30:59.052Z,3.00
2023-04-25T01:34:26.436Z,3.40
2023-04-25T01:37:53.760Z,2.70
2023-04-25T01:41:21.008Z,3.00
2023-04-25T01:44:48.067Z,2.70
2023-04-25T01:48:16.302Z,3.40
2023-04-25T01:51:44.617Z,3.60
2023-04-25T01:55:12.979Z,3.90
2023-04-25T01:58:46.906Z,3.30
2023-04-25T02:02:39.303Z,3.90
2023-04-25T02:06:13.468Z,3.80
2023-04-25T02:09:44.006Z,4.20
2023-04-25T02:13:12.711Z,3.90
2023-04-25T02:17:02.714Z,4.60
2023-04-25T02:20:32.572Z,4.40
2023-04-25T02:23:59.726Z,4.30
2023-04-25T02:27:29.009Z,4.30
2023-04-25T02:30:57.179Z,4.10
2023-04-25T02:34:24.741Z,4.70
2023-04-25T02:37:51.586Z,4.70
2023-04-25T02:41:18.871Z,4.40
2023-04-25T02:44:45.924Z,4.50
2023-04-25T02:48:13.200Z,4.80
2023-04-25T02:51:40.219Z,5.20
2023-04-25T02:55:08.409Z,4.80
2023-04-25T02:58:35.676Z,5.20
2023-04-25T03:02:02.711Z,4.60
2023-04-25T03:05:30.114Z,5.40
2023-04-25T03:08:56.975Z,5.30
2023-04-25T03:12:24.211Z,5.30
2023-04-25T03:15:51.430Z,5.50
2023-04-25T03:19:19.725Z,5.00
2023-04-25T03:22:46.724Z,5.60
2023-04-25T03:26:13.686Z,6.10
2023-04-25T03:29:41.513Z,6.40
2023-04-25T03:33:10.083Z,6.10
2023-04-25T03:36:38.282Z,6.20
2023-04-25T03:40:10.060Z,6.20
2023-04-25T03:43:57.096Z,6.80
2023-04-25T03:47:24.263Z,6.20
2023-04-25T03:50:52.885Z,7.00
2023-04-25T03:54:19.984Z,7.20
2023-04-25T03:57:54.914Z,6.90
2023-04-25T04:01:23.065Z,7.20
2023-04-25T04:04:50.482Z,8.00
2023-04-25T04:08:18.002Z,7.10
2023-04-25T04:11:45.029Z,7.40
2023-04-25T04:15:13.496Z,7.10
2023-04-25T04:18:40.912Z,7.20
2023-04-25T04:22:08.596Z,7.80
2023-04-25T04:25:36.515Z,7.10
2023-04-25T04:29:26.171Z,6.80
2023-04-25T04:33:04.536Z,6.80
2023-04-25T04:36:32.084Z,7.20
2023-04-25T04:39:59.506Z,6.80
2023-04-25T04:43:46.529Z,6.40
2023-04-25T04:47:33.753Z,5.50
2023-04-25T04:51:23.528Z,5.50
2023-04-25T04:55:23.170Z,5.20
2023-04-25T04:59:19.283Z,5.30
2023-04-25T05:03:07.809Z,5.20
2023-04-25T05:06:55.254Z,4.90
2023-04-25T05:10:46.822Z,4.60
2023-04-25T05:14:40.129Z,4.50
2023-04-25T05:18:26.936Z,4.00
2023-04-25T05:22:13.086Z,3.80
2023-04-25T05:25:54.021Z,3.80
2023-04-25T05:29:34.628Z,4.00
2023-04-25T05:33:09.032Z,3.30
2023-04-25T05:36:35.872Z,3.60
2023-04-25T05:40:03.058Z,3.90
2023-04-25T05:43:49.934Z,3.80
2023-04-25T05:47:40.498Z,3.50
2023-04-25T05:51:13.328Z,3.90
2023-04-25T05:54:40.192Z,3.30
2023-04-25T05:58:07.947Z,3.70
2023-04-25T06:01:36.116Z,3.80
2023-04-25T06:05:05.194Z,3.70
2023-04-25T06:08:32.341Z,3.70
2023-04-25T06:11:59.296Z,3.80
2023-04-25T06:15:28.595Z,4.00
2023-04-25T06:18:56.221Z,3.50
2023-04-25T06:22:23.234Z,4.10
2023-04-25T06:25:51.314Z,3.80
2023-04-25T06:29:18.156Z,4.30
2023-04-25T06:32:45.595Z,4.20
2023-04-25T06:36:12.888Z,4.30
2023-04-25T06:39:41.479Z,4.70
2023-04-25T06:43:08.638Z,4.40
2023-04-25T06:46:54.575Z,4.90
2023-04-25T06:50:21.654Z,4.70
2023-04-25T06:53:48.806Z,5.00
2023-04-25T06:57:24.533Z,5.30
2023-04-25T07:00:52.477Z,4.80
2023-04-25T07:04:21.800Z,5.20
2023-04-25T07:07:55.514Z,4.90
2023-04-25T07:11:22.624Z,4.10
2023-04-25T07:14:49.742Z,4.70
2023-04-25T07:18:17.455Z,4.20
2023-04-25T07:21:44.917Z,4.70
2023-04-25T07:25:13.621Z,4.50
2023-04-25T07:28:42.409Z,4.10
2023-04-25T07:32:09.841Z,4.20
2023-04-25T07:35:37.233Z,4.10
2023-04-25T07:39:04.607Z,3.90
2023-04-25T07:42:31.743Z,4.20
2023-04-25T07:46:01.419Z,3.80
2023-04-25T07:49:32.238Z,3.90
2023-04-25T07:53:01.269Z,4.50
2023-04-25T07:56:52.536Z,4.30
2023-04-25T08:00:25.052Z,4.30
2023-04-25T08:03:55.020Z,3.70
2023-04-25T08:07:31.171Z,4.10
2023-04-25T08:11:02.680Z,3.70
2023-04-25T08:14:38.412Z,4.00
2023-04-25T08:18:08.633Z,4.20
2023-04-25T08:25:08.360Z,4.30
2023-04-25T08:32:04.277Z,4.40
2023-04-25T08:35:34.082Z,4.20
2023-04-25T08:39:02.841Z,3.70
2023-04-25T08:42:33.364Z,3.70
2023-04-25T08:46:03.649Z,4.60
2023-04-25T08:49:47.175Z,3.60
2023-04-25T08:53:19.834Z,4.50
2023-04-25T08:56:49.543Z,4.10
2023-04-25T09:00:17.874Z,3.90
2023-04-25T09:03:45.761Z,4.30
2023-04-25T09:07:13.262Z,5.10
2023-04-25T09:10:41.101Z,4.20
2023-04-25T09:14:19.158Z,4.20
2023-04-25T09:18:07.528Z,4.50
2023-04-25T09:21:38.578Z,3.60
2023-04-25T09:25:10.548Z,3.50
2023-04-25T09:28:39.030Z,3.90
2023-04-25T09:32:17.282Z,3.50
2023-04-25T09:35:47.159Z,4.00
2023-04-25T09:39:22.504Z,4.20
2023-04-25T09:43:00.205Z,4.20
2023-04-25T09:46:27.735Z,3.60
2023-04-25T09:49:57.239Z,3.60
2023-04-25T09:53:24.438Z,3.60
2023-04-25T09:57:12.500Z,3.30
2023-04-25T10:00:40.608Z,3.20
2023-04-25T10:04:14.916Z,2.70
2023-04-25T10:08:04.075Z,3.20
2023-04-25T10:11:32.734Z,4.00
2023-04-25T10:15:01.382Z,7.10
2023-04-25T10:18:29.755Z,5.90
2023-04-25T10:22:04.613Z,4.60
2023-04-25T10:25:31.951Z,4.80
2023-04-25T10:29:03.521Z,18.90
2023-04-25T10:32:31.267Z,16.00
2023-04-25T10:36:10.564Z,21.10
2023-04-25T10:39:37.447Z,10.10
2023-04-25T10:43:34.406Z,7.80
2023-04-25T10:47:02.510Z,4.50
2023-04-25T10:50:41.462Z,18.30
2023-04-25T10:54:10.069Z,21.60
2023-04-25T10:57:43.469Z,20.60
2023-04-25T11:01:10.912Z,11.30
2023-04-25T11:04:40.017Z,9.80
2023-04-25T11:08:15.099Z,5.00
2023-04-25T11:11:42.359Z,4.70
2023-04-25T11:15:11.559Z,3.80
2023-04-25T11:18:39.306Z,3.50
2023-04-25T11:22:07.911Z,3.80
2023-04-25T11:25:37.747Z,3.20
2023-04-25T11:29:05.681Z,2.90
2023-04-25T11:32:32.640Z,3.60
2023-04-25T11:36:00.534Z,3.40
2023-04-25T11:39:30.359Z,2.80
2023-04-25T11:46:24.310Z,3.30
2023-04-25T11:49:57.100Z,3.30
2023-04-25T11:53:25.865Z,4.10
2023-04-25T11:56:53.500Z,3.50
2023-04-25T12:00:24.097Z,8.80
2023-04-25T12:03:52.040Z,31.40
2023-04-25T12:07:22.772Z,23.80
2023-04-25T12:10:50.648Z,13.90
2023-04-25T12:14:25.492Z,8.60
2023-04-25T12:17:54.925Z,3.40
2023-04-25T12:24:52.631Z,4.40
2023-04-25T12:28:21.747Z,4.00
2023-04-25T12:31:49.032Z,2.90
2023-04-25T12:35:17.039Z,2.60
2023-04-25T12:38:45.092Z,2.40
2023-04-25T12:42:13.388Z,2.80
2023-04-25T12:45:41.187Z,3.10
2023-04-25T12:49:18.748Z,3.00
2023-04-25T12:52:46.365Z,2.80
2023-04-25T12:56:13.549Z,2.90
2023-04-25T12:59:41.078Z,2.90
2023-04-25T13:03:08.596Z,2.60
2023-04-25T13:06:35.957Z,3.00
2023-04-25T13:10:04.007Z,3.50
2023-04-25T13:13:30.927Z,2.60
2023-04-25T13:16:58.448Z,2.20
2023-04-25T13:20:26.208Z,0.90
2023-04-25T13:23:53.827Z,1.50
2023-04-25T13:27:21.558Z,1.20
2023-04-25T13:30:49.078Z,12.90
2023-04-25T13:34:16.192Z,14.60
2023-04-25T13:37:43.554Z,11.40
2023-04-25T13:41:12.276Z,8.00
2023-04-25T13:44:39.430Z,2.80
2023-04-25T13:48:07.698Z,2.50
2023-04-25T13:51:34.828Z,2.20
2023-04-25T13:55:04.384Z,2.90
2023-04-25T13:58:31.785Z,2.40
2023-04-25T14:01:58.860Z,2.50
2023-04-25T14:05:25.826Z,2.70
2023-04-25T14:08:52.885Z,2.80
2023-04-25T14:12:20.048Z,3.10
2023-04-25T14:15:47.026Z,3.50
2023-04-25T14:19:14.397Z,2.90
2023-04-25T14:22:44.831Z,3.40
2023-04-25T14:26:13.693Z,2.80
2023-04-25T14:29:41.272Z,2.30
2023-04-25T14:33:08.432Z,2.10
2023-04-25T14:36:36.168Z,2.10
2023-04-25T14:40:03.710Z,2.30
2023-04-25T14:43:30.632Z,2.10
2023-04-25T14:46:57.653Z,2.90
2023-04-25T14:50:25.162Z,3.80
2023-04-25T14:53:52.682Z,2.60
2023-04-25T14:57:19.771Z,2.60
2023-04-25T15:00:46.971Z,2.90
2023-04-25T15:04:15.423Z,2.80
2023-04-25T15:07:43.106Z,3.70
2023-04-25T15:11:10.280Z,3.20
2023-04-25T15:14:37.759Z,3.70
2023-04-25T15:18:05.411Z,2.90
2023-04-25T15:21:33.402Z,4.50
2023-04-25T15:25:00.504Z,3.50
2023-04-25T15:28:27.713Z,3.40
2023-04-25T15:31:55.229Z,4.10
2023-04-25T15:35:22.090Z,4.00
2023-04-25T15:38:48.831Z,4.30
2023-04-25T15:42:15.944Z,3.50
2023-04-25T15:45:43.040Z,3.50
2023-04-25T15:49:10.178Z,3.40
2023-04-25T15:52:38.057Z,3.30
2023-04-25T15:56:05.932Z,3.80
2023-04-25T15:59:32.836Z,21.00
2023-04-25T16:02:59.875Z,129.50
2023-04-25T16:06:27.790Z,105.60
2023-04-25T16:09:54.580Z,116.10
2023-04-25T16:13:21.479Z,87.50
2023-04-25T16:16:48.651Z,86.80
2023-04-25T16:20:16.414Z,118.30
2023-04-25T16:23:43.706Z,147.30
2023-04-25T16:27:10.853Z,186.90
2023-04-25T16:30:37.686Z,154.70
2023-04-25T16:34:05.188Z,130.00
2023-04-25T16:37:32.173Z,98.40
2023-04-25T16:40:59.228Z,18.50
2023-04-25T16:44:26.220Z,14.90
2023-04-25T16:47:53.407Z,6.80
2023-04-25T16:51:20.748Z,15.50
2023-04-25T16:54:47.935Z,5.20
2023-04-25T16:58:15.016Z,4.00
2023-04-25T17:01:41.969Z,3.80
2023-04-25T17:05:10.724Z,4.10
2023-04-25T17:08:37.824Z,4.00
2023-04-25T17:12:04.962Z,5.00
2023-04-25T17:15:34.178Z,3.80
2023-04-25T17:19:01.218Z,4.00
2023-04-25T17:22:28.413Z,4.90
2023-04-25T17:25:55.523Z,5.60
2023-04-25T17:29:23.848Z,4.60
2023-04-25T17:32:50.697Z,4.30
2023-04-25T17:36:18.175Z,4.90
2023-04-25T17:39:45.850Z,5.30
2023-04-25T17:43:12.948Z,5.00
2023-04-25T17:46:40.163Z,5.00
2023-04-25T17:50:09.009Z,4.50
2023-04-25T17:53:36.649Z,4.60
2023-04-25T17:57:04.819Z,4.60
2023-04-25T18:00:32.604Z,5.30
2023-04-25T18:03:59.798Z,4.40
2023-04-25T18:07:26.815Z,4.40
2023-04-25T18:10:54.529Z,4.40
2023-04-25T18:14:22.303Z,6.10
2023-04-25T18:17:49.928Z,4.40
2023-04-25T18:21:17.712Z,4.70
2023-04-25T18:24:46.458Z,4.20
2023-04-25T18:28:13.961Z,5.00
2023-04-25T18:31:42.040Z,4.70
2023-04-25T18:35:12.362Z,5.20
2023-04-25T18:38:39.875Z,5.10
2023-04-25T18:42:07.299Z,4.70
2023-04-25T18:45:34.726Z,4.90
2023-04-25T18:49:05.068Z,4.50
2023-04-25T18:52:33.252Z,4.80
2023-04-25T18:56:01.201Z,4.50
2023-04-25T18:59:28.609Z,4.00
2023-04-25T19:02:58.540Z,6.10
2023-04-25T19:06:30.104Z,5.60
2023-04-25T19:09:57.915Z,6.60
2023-04-25T19:13:24.959Z,7.10
2023-04-25T19:16:52.345Z,8.20
2023-04-25T19:20:21.113Z,7.60
2023-04-25T19:23:48.400Z,6.90
2023-04-25T19:27:15.612Z,6.30
2023-04-25T19:30:43.047Z,5.50
2023-04-25T19:34:11.405Z,4.80
2023-04-25T19:37:39.176Z,5.10
2023-04-25T19:41:06.570Z,4.90
2023-04-25T19:44:33.725Z,4.70
2023-04-25T19:48:01.269Z,4.60
2023-04-25T19:51:28.550Z,5.40
2023-04-25T19:54:58.295Z,4.60
2023-04-25T19:58:25.913Z,6.40
2023-04-25T20:01:52.812Z,6.90
2023-04-25T20:05:20.390Z,6.00
2023-04-25T20:08:48.062Z,4.70
2023-04-25T20:12:18.170Z,5.70
2023-04-25T20:15:45.186Z,7.30
2023-04-25T20:19:12.264Z,6.70
2023-04-25T20:22:40.535Z,8.50
2023-04-25T20:26:07.828Z,7.80
2023-04-25T20:29:34.846Z,8.40
2023-04-25T20:33:04.136Z,10.00
2023-04-25T20:36:32.218Z,8.00
2023-04-25T20:39:59.477Z,10.40
2023-04-25T20:43:27.200Z,10.60
2023-04-25T20:46:54.411Z,25.30
2023-04-25T20:50:21.489Z,28.90
2023-04-25T20:53:48.670Z,34.60
2023-04-25T20:57:15.908Z,26.20
2023-04-25T21:00:42.945Z,58.30
2023-04-25T21:04:10.345Z,30.80
2023-04-25T21:07:38.303Z,27.90
2023-04-25T21:11:05.265Z,19.00
2023-04-25T21:14:32.320Z,23.70
2023-04-25T21:17:59.347Z,38.10
2023-04-25T21:21:26.458Z,32.00
2023-04-25T21:24:54.318Z,23.70
2023-04-25T21:28:21.555Z,26.30
2023-04-25T21:31:48.975Z,88.20
2023-04-25T21:35:15.906Z,106.00
2023-04-25T21:38:42.864Z,61.70
2023-04-25T21:42:10.882Z,35.80
2023-04-25T21:45:51.328Z,16.00
2023-04-25T21:49:29.392Z,10.20
2023-04-25T21:52:58.966Z,7.80
2023-04-25T21:59:51.646Z,5.80
2023-04-25T22:03:20.249Z,6.00
2023-04-25T22:06:47.662Z,5.70
2023-04-25T22:10:15.325Z,6.00
2023-04-25T22:13:42.383Z,6.10
2023-04-25T22:17:10.046Z,5.80
2023-04-25T22:20:38.806Z,5.80
2023-04-25T22:24:06.284Z,4.60
2023-04-25T22:27:34.219Z,4.60
2023-04-25T22:31:01.270Z,4.70
2023-04-25T22:34:28.492Z,4.00
2023-04-25T22:37:55.218Z,3.90
2023-04-25T22:41:23.759Z,4.90
2023-04-25T22:44:52.146Z,4.60
2023-04-25T22:48:18.944Z,4.80
2023-04-25T22:51:45.818Z,5.60
2023-04-25T22:55:13.203Z,8.20
2023-04-25T22:58:40.870Z,13.60
2023-04-25T23:02:07.755Z,19.40
2023-04-25T23:05:34.828Z,23.30
2023-04-25T23:09:01.801Z,26.50
2023-04-25T23:12:28.791Z,25.70
2023-04-25T23:15:55.569Z,28.90
2023-04-25T23:19:22.941Z,33.80
2023-04-25T23:22:50.480Z,35.40
2023-04-25T23:26:17.484Z,33.50
2023-04-25T23:29:44.430Z,26.40
2023-04-25T23:33:11.712Z,28.40
2023-04-25T23:36:39.280Z,36.90
2023-04-25T23:40:10.104Z,35.00
2023-04-25T23:43:37.099Z,26.30
2023-04-25T23:47:04.170Z,24.80
2023-04-25T23:50:32.062Z,23.80
2023-04-25T23:53:58.962Z,28.10
2023-04-25T23:57:26.057Z,22.50
